sensor_id;sensor_type;location;lat;lon;timestamp;temperature;humidity
23609;DHT22;11982;50.810;4.442;2022-07-29T00:00:05;18.30;99.90
23609;DHT22;11982;50.810;4.442;2022-07-29T00:02:31;18.40;99.90
23609;DHT22;11982;50.810;4.442;2022-07-29T00:04:57;18.50;99.90
23609;DHT22;11982;50.810;4.442;2022-07-29T00:07:23;18.50;99.90
23609;DHT22;11982;50.810;4.442;2022-07-29T00:09:48;18.50;99.90
23609;DHT22;11982;50.810;4.442;2022-07-29T00:12:14;18.40;99.90
23609;DHT22;11982;50.810;4.442;2022-07-29T00:14:39;18.40;99.90
23609;DHT22;11982;50.810;4.442;2022-07-29T00:17:05;18.40;99.90
23609;DHT22;11982;50.810;4.442;2022-07-29T00:19:31;18.50;99.90
23609;DHT22;11982;50.810;4.442;2022-07-29T00:21:56;18.40;99.90
23609;DHT22;11982;50.810;4.442;2022-07-29T00:24:22;18.40;99.90
23609;DHT22;11982;50.810;4.442;2022-07-29T00:26:48;18.30;99.90
23609;DHT22;11982;50.810;4.442;2022-07-29T00:29:13;18.40;99.90
23609;DHT22;11982;50.810;4.442;2022-07-29T00:31:39;18.20;99.90
23609;DHT22;11982;50.810;4.442;2022-07-29T00:34:04;18.20;99.90
23609;DHT22;11982;50.810;4.442;2022-07-29T00:36:31;18.20;99.90
23609;DHT22;11982;50.810;4.442;2022-07-29T00:38:57;18.20;99.90
23609;DHT22;11982;50.810;4.442;2022-07-29T00:41:23;18.10;99.90
23609;DHT22;11982;50.810;4.442;2022-07-29T00:43:49;18.00;99.90
23609;DHT22;11982;50.810;4.442;2022-07-29T00:46:14;17.90;99.90
23609;DHT22;11982;50.810;4.442;2022-07-29T00:48:40;17.80;99.90
23609;DHT22;11982;50.810;4.442;2022-07-29T00:51:06;17.70;99.90
23609;DHT22;11982;50.810;4.442;2022-07-29T00:53:33;17.60;99.90
23609;DHT22;11982;50.810;4.442;2022-07-29T00:55:59;17.60;99.90
23609;DHT22;11982;50.810;4.442;2022-07-29T00:58:26;17.50;99.90
23609;DHT22;11982;50.810;4.442;2022-07-29T01:00:52;17.50;99.90
23609;DHT22;11982;50.810;4.442;2022-07-29T01:03:18;17.50;99.90
23609;DHT22;11982;50.810;4.442;2022-07-29T01:05:44;17.50;99.90
23609;DHT22;11982;50.810;4.442;2022-07-29T01:08:12;17.50;99.90
23609;DHT22;11982;50.810;4.442;2022-07-29T01:10:40;17.40;99.90
23609;DHT22;11982;50.810;4.442;2022-07-29T01:13:06;17.30;99.90
23609;DHT22;11982;50.810;4.442;2022-07-29T01:15:34;17.40;99.90
23609;DHT22;11982;50.810;4.442;2022-07-29T01:29:11;17.30;99.90
23609;DHT22;11982;50.810;4.442;2022-07-29T01:32:02;17.20;99.90
23609;DHT22;11982;50.810;4.442;2022-07-29T01:34:41;17.10;99.90
23609;DHT22;11982;50.810;4.442;2022-07-29T01:39:47;17.20;99.90
23609;DHT22;11982;50.810;4.442;2022-07-29T01:42:44;17.30;99.90
23609;DHT22;11982;50.810;4.442;2022-07-29T01:50:48;17.10;99.90
23609;DHT22;11982;50.810;4.442;2022-07-29T01:53:21;17.00;99.90
23609;DHT22;11982;50.810;4.442;2022-07-29T01:55:52;16.90;99.90
23609;DHT22;11982;50.810;4.442;2022-07-29T01:58:19;16.70;99.90
23609;DHT22;11982;50.810;4.442;2022-07-29T02:00:46;16.70;99.90
23609;DHT22;11982;50.810;4.442;2022-07-29T02:03:15;16.60;99.90
23609;DHT22;11982;50.810;4.442;2022-07-29T02:05:44;16.60;99.90
23609;DHT22;11982;50.810;4.442;2022-07-29T02:08:11;16.50;99.90
23609;DHT22;11982;50.810;4.442;2022-07-29T02:10:40;16.40;99.90
23609;DHT22;11982;50.810;4.442;2022-07-29T02:13:07;16.40;99.90
23609;DHT22;11982;50.810;4.442;2022-07-29T02:15:35;16.50;99.90
23609;DHT22;11982;50.810;4.442;2022-07-29T02:18:06;16.40;99.90
23609;DHT22;11982;50.810;4.442;2022-07-29T02:20:33;16.30;99.90
23609;DHT22;11982;50.810;4.442;2022-07-29T02:23:00;16.10;99.90
23609;DHT22;11982;50.810;4.442;2022-07-29T02:25:27;16.00;99.90
23609;DHT22;11982;50.810;4.442;2022-07-29T02:27:55;16.00;99.90
23609;DHT22;11982;50.810;4.442;2022-07-29T02:30:22;16.00;99.90
23609;DHT22;11982;50.810;4.442;2022-07-29T02:32:49;16.00;99.90
23609;DHT22;11982;50.810;4.442;2022-07-29T02:35:17;16.10;99.90
23609;DHT22;11982;50.810;4.442;2022-07-29T02:37:44;15.80;99.90
23609;DHT22;11982;50.810;4.442;2022-07-29T02:40:31;15.70;99.90
23609;DHT22;11982;50.810;4.442;2022-07-29T02:42:57;15.70;99.90
23609;DHT22;11982;50.810;4.442;2022-07-29T02:45:23;15.60;99.90
23609;DHT22;11982;50.810;4.442;2022-07-29T02:47:49;15.60;99.90
23609;DHT22;11982;50.810;4.442;2022-07-29T02:50:32;15.60;99.90
23609;DHT22;11982;50.810;4.442;2022-07-29T02:53:07;15.60;99.90
23609;DHT22;11982;50.810;4.442;2022-07-29T02:55:59;15.40;99.90
23609;DHT22;11982;50.810;4.442;2022-07-29T03:00:57;15.30;99.90
23609;DHT22;11982;50.810;4.442;2022-07-29T03:03:25;15.40;99.90
23609;DHT22;11982;50.810;4.442;2022-07-29T03:05:57;15.30;99.90
23609;DHT22;11982;50.810;4.442;2022-07-29T03:08:23;15.20;99.90
23609;DHT22;11982;50.810;4.442;2022-07-29T03:10:50;15.10;99.90
23609;DHT22;11982;50.810;4.442;2022-07-29T03:13:16;15.00;99.90
23609;DHT22;11982;50.810;4.442;2022-07-29T03:15:44;15.00;99.90
23609;DHT22;11982;50.810;4.442;2022-07-29T03:18:11;15.00;99.90
23609;DHT22;11982;50.810;4.442;2022-07-29T03:20:38;15.00;99.90
23609;DHT22;11982;50.810;4.442;2022-07-29T03:23:04;14.90;99.90
23609;DHT22;11982;50.810;4.442;2022-07-29T03:25:30;14.90;99.90
23609;DHT22;11982;50.810;4.442;2022-07-29T03:27:56;14.90;99.90
23609;DHT22;11982;50.810;4.442;2022-07-29T03:30:22;14.80;99.90
23609;DHT22;11982;50.810;4.442;2022-07-29T03:32:48;14.70;99.90
23609;DHT22;11982;50.810;4.442;2022-07-29T03:35:14;14.60;99.90
23609;DHT22;11982;50.810;4.442;2022-07-29T03:37:42;14.50;99.90
23609;DHT22;11982;50.810;4.442;2022-07-29T03:40:09;14.50;99.90
23609;DHT22;11982;50.810;4.442;2022-07-29T03:42:37;14.50;99.90
23609;DHT22;11982;50.810;4.442;2022-07-29T03:45:11;14.40;99.90
23609;DHT22;11982;50.810;4.442;2022-07-29T03:47:40;14.40;99.90
23609;DHT22;11982;50.810;4.442;2022-07-29T03:50:09;14.40;99.90
23609;DHT22;11982;50.810;4.442;2022-07-29T03:52:36;14.40;99.90
23609;DHT22;11982;50.810;4.442;2022-07-29T03:55:03;14.50;99.90
23609;DHT22;11982;50.810;4.442;2022-07-29T03:57:30;14.40;99.90
23609;DHT22;11982;50.810;4.442;2022-07-29T03:59:56;14.40;99.90
23609;DHT22;11982;50.810;4.442;2022-07-29T04:02:23;14.40;99.90
23609;DHT22;11982;50.810;4.442;2022-07-29T04:04:49;14.30;99.90
23609;DHT22;11982;50.810;4.442;2022-07-29T04:07:15;14.30;99.90
23609;DHT22;11982;50.810;4.442;2022-07-29T04:09:41;14.20;99.90
23609;DHT22;11982;50.810;4.442;2022-07-29T04:12:07;14.10;99.90
23609;DHT22;11982;50.810;4.442;2022-07-29T04:14:34;14.10;99.90
23609;DHT22;11982;50.810;4.442;2022-07-29T04:17:00;14.10;99.90
23609;DHT22;11982;50.810;4.442;2022-07-29T04:19:26;14.00;99.90
23609;DHT22;11982;50.810;4.442;2022-07-29T04:21:52;14.00;99.90
23609;DHT22;11982;50.810;4.442;2022-07-29T04:24:17;14.10;99.90
23609;DHT22;11982;50.810;4.442;2022-07-29T04:26:44;14.10;99.90
23609;DHT22;11982;50.810;4.442;2022-07-29T04:29:10;14.00;99.90
23609;DHT22;11982;50.810;4.442;2022-07-29T04:31:37;14.10;99.90
23609;DHT22;11982;50.810;4.442;2022-07-29T04:34:03;14.10;99.90
23609;DHT22;11982;50.810;4.442;2022-07-29T04:36:29;14.20;99.90
23609;DHT22;11982;50.810;4.442;2022-07-29T04:38:54;14.40;99.90
23609;DHT22;11982;50.810;4.442;2022-07-29T04:41:20;14.40;99.90
23609;DHT22;11982;50.810;4.442;2022-07-29T04:43:45;14.40;99.90
23609;DHT22;11982;50.810;4.442;2022-07-29T04:46:11;14.30;99.90
23609;DHT22;11982;50.810;4.442;2022-07-29T04:48:37;14.30;99.90
23609;DHT22;11982;50.810;4.442;2022-07-29T04:51:02;14.30;99.90
23609;DHT22;11982;50.810;4.442;2022-07-29T04:53:28;14.30;99.90
23609;DHT22;11982;50.810;4.442;2022-07-29T04:55:54;14.40;99.90
23609;DHT22;11982;50.810;4.442;2022-07-29T04:58:20;14.40;99.90
23609;DHT22;11982;50.810;4.442;2022-07-29T05:00:45;14.50;99.90
23609;DHT22;11982;50.810;4.442;2022-07-29T05:03:11;14.70;99.90
23609;DHT22;11982;50.810;4.442;2022-07-29T05:05:37;14.70;99.90
23609;DHT22;11982;50.810;4.442;2022-07-29T05:08:03;14.50;99.90
23609;DHT22;11982;50.810;4.442;2022-07-29T05:10:28;14.60;99.90
23609;DHT22;11982;50.810;4.442;2022-07-29T05:12:54;14.70;99.90
23609;DHT22;11982;50.810;4.442;2022-07-29T05:15:20;14.70;99.90
23609;DHT22;11982;50.810;4.442;2022-07-29T05:17:45;14.90;99.90
23609;DHT22;11982;50.810;4.442;2022-07-29T05:20:11;15.10;99.90
23609;DHT22;11982;50.810;4.442;2022-07-29T05:22:37;15.10;99.90
23609;DHT22;11982;50.810;4.442;2022-07-29T05:25:02;15.10;99.90
23609;DHT22;11982;50.810;4.442;2022-07-29T05:27:28;15.20;99.90
23609;DHT22;11982;50.810;4.442;2022-07-29T05:29:54;15.30;99.90
23609;DHT22;11982;50.810;4.442;2022-07-29T05:32:20;15.60;99.90
23609;DHT22;11982;50.810;4.442;2022-07-29T05:34:45;15.70;99.90
23609;DHT22;11982;50.810;4.442;2022-07-29T05:37:11;16.00;99.90
23609;DHT22;11982;50.810;4.442;2022-07-29T05:39:38;16.30;99.90
23609;DHT22;11982;50.810;4.442;2022-07-29T05:42:10;16.70;99.90
23609;DHT22;11982;50.810;4.442;2022-07-29T05:44:39;17.00;99.90
23609;DHT22;11982;50.810;4.442;2022-07-29T05:47:05;17.30;99.90
23609;DHT22;11982;50.810;4.442;2022-07-29T05:49:32;17.40;99.90
23609;DHT22;11982;50.810;4.442;2022-07-29T05:51:57;17.50;99.90
23609;DHT22;11982;50.810;4.442;2022-07-29T05:54:23;17.50;99.90
23609;DHT22;11982;50.810;4.442;2022-07-29T05:56:49;17.50;99.90
23609;DHT22;11982;50.810;4.442;2022-07-29T05:59:14;17.80;99.90
23609;DHT22;11982;50.810;4.442;2022-07-29T06:01:40;17.90;99.90
23609;DHT22;11982;50.810;4.442;2022-07-29T06:04:07;18.00;99.90
23609;DHT22;11982;50.810;4.442;2022-07-29T06:06:34;18.30;99.90
23609;DHT22;11982;50.810;4.442;2022-07-29T06:09:00;18.40;99.90
23609;DHT22;11982;50.810;4.442;2022-07-29T06:11:26;18.10;99.90
23609;DHT22;11982;50.810;4.442;2022-07-29T06:13:51;18.20;99.90
23609;DHT22;11982;50.810;4.442;2022-07-29T06:16:18;18.50;99.90
23609;DHT22;11982;50.810;4.442;2022-07-29T06:18:44;18.40;99.90
23609;DHT22;11982;50.810;4.442;2022-07-29T06:21:09;18.40;99.90
23609;DHT22;11982;50.810;4.442;2022-07-29T06:23:36;18.30;99.90
23609;DHT22;11982;50.810;4.442;2022-07-29T06:26:02;18.30;99.90
23609;DHT22;11982;50.810;4.442;2022-07-29T06:28:28;18.40;99.90
23609;DHT22;11982;50.810;4.442;2022-07-29T06:30:53;18.40;99.90
23609;DHT22;11982;50.810;4.442;2022-07-29T06:33:19;18.20;99.90
23609;DHT22;11982;50.810;4.442;2022-07-29T06:35:45;18.10;99.90
23609;DHT22;11982;50.810;4.442;2022-07-29T06:38:13;18.20;99.90
23609;DHT22;11982;50.810;4.442;2022-07-29T06:40:45;18.20;99.90
23609;DHT22;11982;50.810;4.442;2022-07-29T06:43:31;18.30;99.90
23609;DHT22;11982;50.810;4.442;2022-07-29T06:46:04;18.40;99.90
23609;DHT22;11982;50.810;4.442;2022-07-29T06:48:31;18.40;99.90
23609;DHT22;11982;50.810;4.442;2022-07-29T06:50:56;18.40;99.90
23609;DHT22;11982;50.810;4.442;2022-07-29T06:53:22;18.50;99.90
23609;DHT22;11982;50.810;4.442;2022-07-29T06:55:48;18.70;99.90
23609;DHT22;11982;50.810;4.442;2022-07-29T06:58:13;18.80;99.90
23609;DHT22;11982;50.810;4.442;2022-07-29T07:00:41;18.70;99.90
23609;DHT22;11982;50.810;4.442;2022-07-29T07:03:07;18.90;99.90
23609;DHT22;11982;50.810;4.442;2022-07-29T07:05:33;19.10;99.90
23609;DHT22;11982;50.810;4.442;2022-07-29T07:07:58;19.40;99.90
23609;DHT22;11982;50.810;4.442;2022-07-29T07:10:24;19.60;99.90
23609;DHT22;11982;50.810;4.442;2022-07-29T07:12:50;20.00;99.90
23609;DHT22;11982;50.810;4.442;2022-07-29T07:15:16;20.30;99.90
23609;DHT22;11982;50.810;4.442;2022-07-29T07:17:41;20.70;99.90
23609;DHT22;11982;50.810;4.442;2022-07-29T07:20:07;20.60;99.90
23609;DHT22;11982;50.810;4.442;2022-07-29T07:22:33;20.80;99.90
23609;DHT22;11982;50.810;4.442;2022-07-29T07:24:58;21.10;99.90
23609;DHT22;11982;50.810;4.442;2022-07-29T07:27:24;21.20;99.90
23609;DHT22;11982;50.810;4.442;2022-07-29T07:29:50;21.30;99.90
23609;DHT22;11982;50.810;4.442;2022-07-29T07:32:15;21.30;99.90
23609;DHT22;11982;50.810;4.442;2022-07-29T07:34:44;21.50;99.90
23609;DHT22;11982;50.810;4.442;2022-07-29T07:37:10;21.30;99.90
23609;DHT22;11982;50.810;4.442;2022-07-29T07:39:36;20.90;99.90
23609;DHT22;11982;50.810;4.442;2022-07-29T07:42:01;20.80;99.90
23609;DHT22;11982;50.810;4.442;2022-07-29T07:44:27;20.80;99.90
23609;DHT22;11982;50.810;4.442;2022-07-29T07:46:52;20.40;99.90
23609;DHT22;11982;50.810;4.442;2022-07-29T07:49:18;20.30;99.90
23609;DHT22;11982;50.810;4.442;2022-07-29T07:51:44;20.30;99.90
23609;DHT22;11982;50.810;4.442;2022-07-29T07:54:09;20.20;99.90
23609;DHT22;11982;50.810;4.442;2022-07-29T07:56:35;20.40;99.90
23609;DHT22;11982;50.810;4.442;2022-07-29T07:59:01;20.40;99.90
23609;DHT22;11982;50.810;4.442;2022-07-29T08:01:26;20.20;99.90
23609;DHT22;11982;50.810;4.442;2022-07-29T08:03:52;20.00;99.90
23609;DHT22;11982;50.810;4.442;2022-07-29T08:06:17;20.20;99.90
23609;DHT22;11982;50.810;4.442;2022-07-29T08:08:43;20.30;99.90
23609;DHT22;11982;50.810;4.442;2022-07-29T08:11:09;20.30;99.90
23609;DHT22;11982;50.810;4.442;2022-07-29T08:13:35;20.40;99.90
23609;DHT22;11982;50.810;4.442;2022-07-29T08:16:01;20.20;99.90
23609;DHT22;11982;50.810;4.442;2022-07-29T08:18:29;20.20;99.90
23609;DHT22;11982;50.810;4.442;2022-07-29T08:20:55;20.30;99.90
23609;DHT22;11982;50.810;4.442;2022-07-29T08:23:21;20.50;99.90
23609;DHT22;11982;50.810;4.442;2022-07-29T08:25:46;20.70;99.90
23609;DHT22;11982;50.810;4.442;2022-07-29T08:28:12;20.80;99.90
23609;DHT22;11982;50.810;4.442;2022-07-29T08:30:38;21.00;99.90
23609;DHT22;11982;50.810;4.442;2022-07-29T08:33:03;20.80;99.90
23609;DHT22;11982;50.810;4.442;2022-07-29T08:35:29;20.70;99.90
23609;DHT22;11982;50.810;4.442;2022-07-29T08:37:55;20.80;99.90
23609;DHT22;11982;50.810;4.442;2022-07-29T08:40:22;20.80;99.90
23609;DHT22;11982;50.810;4.442;2022-07-29T08:42:50;20.90;99.90
23609;DHT22;11982;50.810;4.442;2022-07-29T08:45:16;20.90;99.90
23609;DHT22;11982;50.810;4.442;2022-07-29T08:47:44;21.20;99.90
23609;DHT22;11982;50.810;4.442;2022-07-29T08:50:10;21.10;99.90
23609;DHT22;11982;50.810;4.442;2022-07-29T08:52:39;21.20;99.90
23609;DHT22;11982;50.810;4.442;2022-07-29T08:55:07;21.20;99.90
23609;DHT22;11982;50.810;4.442;2022-07-29T08:57:33;21.30;99.90
23609;DHT22;11982;50.810;4.442;2022-07-29T09:00:03;21.50;99.90
23609;DHT22;11982;50.810;4.442;2022-07-29T09:02:35;21.60;99.90
23609;DHT22;11982;50.810;4.442;2022-07-29T09:05:02;21.70;99.90
23609;DHT22;11982;50.810;4.442;2022-07-29T09:07:28;21.90;99.90
23609;DHT22;11982;50.810;4.442;2022-07-29T09:09:54;21.90;99.90
23609;DHT22;11982;50.810;4.442;2022-07-29T09:12:20;21.90;99.90
23609;DHT22;11982;50.810;4.442;2022-07-29T09:14:47;21.80;99.90
23609;DHT22;11982;50.810;4.442;2022-07-29T09:17:14;22.00;99.90
23609;DHT22;11982;50.810;4.442;2022-07-29T09:19:42;22.00;99.90
23609;DHT22;11982;50.810;4.442;2022-07-29T09:22:08;22.10;99.90
23609;DHT22;11982;50.810;4.442;2022-07-29T09:27:17;22.40;99.90
23609;DHT22;11982;50.810;4.442;2022-07-29T09:29:44;22.30;99.90
23609;DHT22;11982;50.810;4.442;2022-07-29T09:32:10;22.40;99.90
23609;DHT22;11982;50.810;4.442;2022-07-29T09:34:36;22.50;99.90
23609;DHT22;11982;50.810;4.442;2022-07-29T09:37:02;22.70;99.90
23609;DHT22;11982;50.810;4.442;2022-07-29T09:39:34;22.80;99.90
23609;DHT22;11982;50.810;4.442;2022-07-29T09:42:03;22.50;99.90
23609;DHT22;11982;50.810;4.442;2022-07-29T09:47:08;22.50;99.90
23609;DHT22;11982;50.810;4.442;2022-07-29T09:49:35;22.70;99.90
23609;DHT22;11982;50.810;4.442;2022-07-29T09:52:04;22.70;99.90
23609;DHT22;11982;50.810;4.442;2022-07-29T09:54:31;22.90;99.90
23609;DHT22;11982;50.810;4.442;2022-07-29T09:57:04;22.80;99.90
23609;DHT22;11982;50.810;4.442;2022-07-29T09:59:31;22.90;99.90
23609;DHT22;11982;50.810;4.442;2022-07-29T10:01:56;23.10;99.90
23609;DHT22;11982;50.810;4.442;2022-07-29T10:04:22;23.20;99.90
23609;DHT22;11982;50.810;4.442;2022-07-29T10:06:58;23.40;99.90
23609;DHT22;11982;50.810;4.442;2022-07-29T10:09:24;23.50;99.90
23609;DHT22;11982;50.810;4.442;2022-07-29T10:12:06;23.50;99.90
23609;DHT22;11982;50.810;4.442;2022-07-29T10:14:33;23.50;99.90
23609;DHT22;11982;50.810;4.442;2022-07-29T10:17:00;23.50;99.90
23609;DHT22;11982;50.810;4.442;2022-07-29T10:19:30;23.50;99.90
23609;DHT22;11982;50.810;4.442;2022-07-29T10:21:58;23.60;99.90
23609;DHT22;11982;50.810;4.442;2022-07-29T10:24:28;23.70;99.90
23609;DHT22;11982;50.810;4.442;2022-07-29T10:26:55;23.40;99.90
23609;DHT22;11982;50.810;4.442;2022-07-29T10:29:22;23.50;99.90
23609;DHT22;11982;50.810;4.442;2022-07-29T10:42:47;24.30;99.90
23609;DHT22;11982;50.810;4.442;2022-07-29T10:45:16;24.30;99.90
23609;DHT22;11982;50.810;4.442;2022-07-29T10:47:42;24.30;99.90
23609;DHT22;11982;50.810;4.442;2022-07-29T10:50:08;24.10;99.90
23609;DHT22;11982;50.810;4.442;2022-07-29T10:53:00;24.50;99.90
23609;DHT22;11982;50.810;4.442;2022-07-29T10:55:39;24.40;99.90
23609;DHT22;11982;50.810;4.442;2022-07-29T10:58:19;24.40;99.90
23609;DHT22;11982;50.810;4.442;2022-07-29T11:00:47;24.80;99.90
23609;DHT22;11982;50.810;4.442;2022-07-29T11:03:42;25.00;99.90
23609;DHT22;11982;50.810;4.442;2022-07-29T11:06:08;24.70;99.90
23609;DHT22;11982;50.810;4.442;2022-07-29T11:08:34;24.70;99.90
23609;DHT22;11982;50.810;4.442;2022-07-29T11:13:53;24.60;99.90
23609;DHT22;11982;50.810;4.442;2022-07-29T11:16:21;24.40;99.90
23609;DHT22;11982;50.810;4.442;2022-07-29T11:21:40;24.40;99.90
23609;DHT22;11982;50.810;4.442;2022-07-29T11:24:24;24.40;99.90
23609;DHT22;11982;50.810;4.442;2022-07-29T11:27:15;24.70;99.90
23609;DHT22;11982;50.810;4.442;2022-07-29T11:29:50;24.80;99.90
23609;DHT22;11982;50.810;4.442;2022-07-29T11:32:16;25.20;99.90
23609;DHT22;11982;50.810;4.442;2022-07-29T11:34:45;25.20;99.90
23609;DHT22;11982;50.810;4.442;2022-07-29T11:39:39;25.20;99.90
23609;DHT22;11982;50.810;4.442;2022-07-29T11:44:59;25.30;99.90
23609;DHT22;11982;50.810;4.442;2022-07-29T11:47:26;25.60;99.90
23609;DHT22;11982;50.810;4.442;2022-07-29T11:49:53;25.80;99.90
23609;DHT22;11982;50.810;4.442;2022-07-29T11:52:20;25.70;99.90
23609;DHT22;11982;50.810;4.442;2022-07-29T11:54:50;25.80;99.90
23609;DHT22;11982;50.810;4.442;2022-07-29T11:57:19;26.10;99.90
23609;DHT22;11982;50.810;4.442;2022-07-29T11:59:47;26.20;99.90
23609;DHT22;11982;50.810;4.442;2022-07-29T12:02:14;26.30;99.90
23609;DHT22;11982;50.810;4.442;2022-07-29T12:04:50;26.60;99.90
23609;DHT22;11982;50.810;4.442;2022-07-29T12:07:16;26.70;99.90
23609;DHT22;11982;50.810;4.442;2022-07-29T12:09:52;27.10;99.90
23609;DHT22;11982;50.810;4.442;2022-07-29T12:12:19;27.00;99.90
23609;DHT22;11982;50.810;4.442;2022-07-29T12:14:45;26.60;99.90
23609;DHT22;11982;50.810;4.442;2022-07-29T12:17:27;26.60;99.90
23609;DHT22;11982;50.810;4.442;2022-07-29T12:19:55;26.50;99.90
23609;DHT22;11982;50.810;4.442;2022-07-29T12:22:31;26.50;99.90
23609;DHT22;11982;50.810;4.442;2022-07-29T12:25:05;26.80;99.90
23609;DHT22;11982;50.810;4.442;2022-07-29T12:27:32;27.00;99.90
23609;DHT22;11982;50.810;4.442;2022-07-29T12:30:02;27.50;99.90
23609;DHT22;11982;50.810;4.442;2022-07-29T12:32:35;27.60;99.90
23609;DHT22;11982;50.810;4.442;2022-07-29T12:35:10;27.70;99.90
23609;DHT22;11982;50.810;4.442;2022-07-29T12:37:37;27.40;99.90
23609;DHT22;11982;50.810;4.442;2022-07-29T12:40:04;27.30;99.90
23609;DHT22;11982;50.810;4.442;2022-07-29T12:42:30;27.30;99.90
23609;DHT22;11982;50.810;4.442;2022-07-29T12:44:56;27.50;99.90
23609;DHT22;11982;50.810;4.442;2022-07-29T12:47:22;27.50;99.90
23609;DHT22;11982;50.810;4.442;2022-07-29T12:49:48;27.40;99.90
23609;DHT22;11982;50.810;4.442;2022-07-29T12:52:32;27.10;99.90
23609;DHT22;11982;50.810;4.442;2022-07-29T12:54:59;26.80;99.90
23609;DHT22;11982;50.810;4.442;2022-07-29T12:57:25;27.20;99.90
23609;DHT22;11982;50.810;4.442;2022-07-29T13:02:36;27.60;99.90
23609;DHT22;11982;50.810;4.442;2022-07-29T13:05:03;27.70;99.90
23609;DHT22;11982;50.810;4.442;2022-07-29T13:07:31;27.40;99.90
23609;DHT22;11982;50.810;4.442;2022-07-29T13:10:18;27.10;99.90
23609;DHT22;11982;50.810;4.442;2022-07-29T13:13:07;27.50;99.90
23609;DHT22;11982;50.810;4.442;2022-07-29T13:15:45;27.60;99.90
23609;DHT22;11982;50.810;4.442;2022-07-29T13:20:52;28.70;99.90
23609;DHT22;11982;50.810;4.442;2022-07-29T13:23:18;28.70;99.90
23609;DHT22;11982;50.810;4.442;2022-07-29T13:25:43;29.00;99.90
23609;DHT22;11982;50.810;4.442;2022-07-29T13:28:09;28.60;99.70
23609;DHT22;11982;50.810;4.442;2022-07-29T13:30:34;28.00;99.90
23609;DHT22;11982;50.810;4.442;2022-07-29T13:33:00;28.10;99.90
23609;DHT22;11982;50.810;4.442;2022-07-29T13:35:25;27.80;99.90
23609;DHT22;11982;50.810;4.442;2022-07-29T13:37:54;27.60;99.90
23609;DHT22;11982;50.810;4.442;2022-07-29T13:40:20;27.20;99.90
23609;DHT22;11982;50.810;4.442;2022-07-29T13:42:46;27.20;99.90
23609;DHT22;11982;50.810;4.442;2022-07-29T13:45:12;27.60;99.90
23609;DHT22;11982;50.810;4.442;2022-07-29T13:47:38;27.70;99.90
23609;DHT22;11982;50.810;4.442;2022-07-29T13:50:05;27.40;99.90
23609;DHT22;11982;50.810;4.442;2022-07-29T13:52:31;27.40;99.90
23609;DHT22;11982;50.810;4.442;2022-07-29T13:54:57;28.10;99.90
23609;DHT22;11982;50.810;4.442;2022-07-29T13:57:22;27.90;99.90
23609;DHT22;11982;50.810;4.442;2022-07-29T13:59:48;27.50;99.90
23609;DHT22;11982;50.810;4.442;2022-07-29T14:02:14;27.50;99.90
23609;DHT22;11982;50.810;4.442;2022-07-29T14:04:39;27.60;99.90
23609;DHT22;11982;50.810;4.442;2022-07-29T14:07:06;28.20;99.90
23609;DHT22;11982;50.810;4.442;2022-07-29T14:09:32;28.90;99.90
23609;DHT22;11982;50.810;4.442;2022-07-29T14:11:57;28.90;99.70
23609;DHT22;11982;50.810;4.442;2022-07-29T14:14:23;29.00;99.60
23609;DHT22;11982;50.810;4.442;2022-07-29T14:16:49;29.20;98.90
23609;DHT22;11982;50.810;4.442;2022-07-29T14:19:14;28.70;99.20
23609;DHT22;11982;50.810;4.442;2022-07-29T14:21:40;28.80;99.20
23609;DHT22;11982;50.810;4.442;2022-07-29T14:24:06;28.80;99.10
23609;DHT22;11982;50.810;4.442;2022-07-29T14:26:31;28.60;99.30
23609;DHT22;11982;50.810;4.442;2022-07-29T14:28:57;29.30;98.50
23609;DHT22;11982;50.810;4.442;2022-07-29T14:31:22;30.10;98.20
23609;DHT22;11982;50.810;4.442;2022-07-29T14:33:48;29.40;98.80
23609;DHT22;11982;50.810;4.442;2022-07-29T14:36:14;29.00;97.30
23609;DHT22;11982;50.810;4.442;2022-07-29T14:38:39;29.10;97.70
23609;DHT22;11982;50.810;4.442;2022-07-29T14:41:06;29.50;97.20
23609;DHT22;11982;50.810;4.442;2022-07-29T14:43:33;29.40;97.90
23609;DHT22;11982;50.810;4.442;2022-07-29T14:46:01;29.50;96.50
23609;DHT22;11982;50.810;4.442;2022-07-29T14:48:27;29.60;96.30
23609;DHT22;11982;50.810;4.442;2022-07-29T14:50:52;29.60;96.50
23609;DHT22;11982;50.810;4.442;2022-07-29T14:53:18;29.20;97.30
23609;DHT22;11982;50.810;4.442;2022-07-29T14:55:44;29.20;97.10
23609;DHT22;11982;50.810;4.442;2022-07-29T14:58:09;29.30;97.00
23609;DHT22;11982;50.810;4.442;2022-07-29T15:00:35;30.00;96.60
23609;DHT22;11982;50.810;4.442;2022-07-29T15:03:02;29.80;95.90
23609;DHT22;11982;50.810;4.442;2022-07-29T15:05:31;29.60;96.90
23609;DHT22;11982;50.810;4.442;2022-07-29T15:07:58;29.80;95.90
23609;DHT22;11982;50.810;4.442;2022-07-29T15:10:24;30.00;96.30
23609;DHT22;11982;50.810;4.442;2022-07-29T15:12:51;30.00;95.20
23609;DHT22;11982;50.810;4.442;2022-07-29T15:15:17;29.60;95.10
23609;DHT22;11982;50.810;4.442;2022-07-29T15:17:42;29.50;95.30
23609;DHT22;11982;50.810;4.442;2022-07-29T15:20:08;29.30;96.10
23609;DHT22;11982;50.810;4.442;2022-07-29T15:22:34;28.60;96.60
23609;DHT22;11982;50.810;4.442;2022-07-29T15:25:00;28.10;97.70
23609;DHT22;11982;50.810;4.442;2022-07-29T15:27:25;27.70;98.40
23609;DHT22;11982;50.810;4.442;2022-07-29T15:29:51;27.30;98.50
23609;DHT22;11982;50.810;4.442;2022-07-29T15:32:16;27.10;99.10
23609;DHT22;11982;50.810;4.442;2022-07-29T15:34:42;27.10;99.50
23609;DHT22;11982;50.810;4.442;2022-07-29T15:37:08;27.10;99.30
23609;DHT22;11982;50.810;4.442;2022-07-29T15:39:33;26.80;99.10
23609;DHT22;11982;50.810;4.442;2022-07-29T15:41:59;26.70;99.60
23609;DHT22;11982;50.810;4.442;2022-07-29T15:44:25;26.60;99.30
23609;DHT22;11982;50.810;4.442;2022-07-29T15:46:51;26.60;99.50
23609;DHT22;11982;50.810;4.442;2022-07-29T15:49:29;26.40;99.90
23609;DHT22;11982;50.810;4.442;2022-07-29T15:52:02;26.60;99.70
23609;DHT22;11982;50.810;4.442;2022-07-29T15:54:29;26.80;99.80
23609;DHT22;11982;50.810;4.442;2022-07-29T15:56:55;26.70;99.70
23609;DHT22;11982;50.810;4.442;2022-07-29T15:59:21;26.70;99.10
23609;DHT22;11982;50.810;4.442;2022-07-29T16:01:47;26.80;99.60
23609;DHT22;11982;50.810;4.442;2022-07-29T16:04:13;26.70;99.10
23609;DHT22;11982;50.810;4.442;2022-07-29T16:06:39;26.70;99.00
23609;DHT22;11982;50.810;4.442;2022-07-29T16:09:04;26.90;98.70
23609;DHT22;11982;50.810;4.442;2022-07-29T16:11:30;26.80;98.40
23609;DHT22;11982;50.810;4.442;2022-07-29T16:13:55;26.50;99.40
23609;DHT22;11982;50.810;4.442;2022-07-29T16:16:21;26.10;98.90
23609;DHT22;11982;50.810;4.442;2022-07-29T16:18:47;26.10;98.90
23609;DHT22;11982;50.810;4.442;2022-07-29T16:21:13;25.90;99.30
23609;DHT22;11982;50.810;4.442;2022-07-29T16:23:39;25.90;99.30
23609;DHT22;11982;50.810;4.442;2022-07-29T16:26:05;26.10;99.00